createdAt,value
2022-11-17T00:00:10.707Z,18.23
2022-11-17T00:02:37.735Z,16.95
2022-11-17T00:05:04.781Z,16.95
2022-11-17T00:07:31.658Z,18.63
2022-11-17T00:09:58.535Z,17.52
2022-11-17T00:12:43.876Z,18.25
2022-11-17T00:15:10.814Z,20.65
2022-11-17T00:17:37.930Z,19.92
2022-11-17T00:20:24.373Z,17.05
2022-11-17T00:22:51.218Z,19.92
2022-11-17T00:25:17.958Z,20.30
2022-11-17T00:27:44.800Z,18.25
2022-11-17T00:30:31.706Z,20.33
2022-11-17T00:33:23.255Z,20.17
2022-11-17T00:35:54.740Z,19.58
2022-11-17T00:38:24.299Z,20.17
2022-11-17T00:40:51.109Z,18.15
2022-11-17T00:43:17.846Z,19.63
2022-11-17T00:45:44.547Z,19.85
2022-11-17T00:48:12.535Z,16.83
2022-11-17T00:50:39.312Z,15.93
2022-11-17T00:53:06.039Z,17.40
2022-11-17T00:55:33.006Z,14.30
2022-11-17T00:57:59.821Z,14.75
2022-11-17T01:00:26.616Z,13.43
2022-11-17T01:02:53.381Z,15.63
2022-11-17T01:05:20.148Z,16.55
2022-11-17T01:07:49.778Z,15.65
2022-11-17T01:10:16.646Z,14.88
2022-11-17T01:12:43.395Z,19.85
2022-11-17T01:15:10.708Z,16.58
2022-11-17T01:17:37.492Z,14.60
2022-11-17T01:20:04.724Z,15.55
2022-11-17T01:22:31.534Z,16.20
2022-11-17T01:24:58.384Z,17.05
2022-11-17T01:27:25.153Z,16.30
2022-11-17T01:29:51.875Z,17.27
2022-11-17T01:32:18.642Z,15.43
2022-11-17T01:34:45.373Z,20.27
2022-11-17T01:37:21.140Z,14.40
2022-11-17T01:39:49.487Z,15.00
2022-11-17T01:42:20.789Z,15.45
2022-11-17T01:44:56.134Z,14.15
2022-11-17T01:47:50.572Z,17.15
2022-11-17T01:50:45.987Z,16.33
2022-11-17T01:53:17.532Z,14.88
2022-11-17T01:55:50.565Z,15.75
2022-11-17T01:58:29.075Z,15.95
2022-11-17T02:00:56.029Z,13.55
2022-11-17T02:03:24.845Z,13.65
2022-11-17T02:06:00.760Z,14.45
2022-11-17T02:08:30.500Z,15.25
2022-11-17T02:10:58.581Z,14.90
2022-11-17T02:13:25.451Z,15.57
2022-11-17T02:16:14.328Z,14.88
2022-11-17T02:18:42.564Z,14.30
2022-11-17T02:21:37.699Z,14.68
2022-11-17T02:24:21.796Z,15.00
2022-11-17T02:27:06.825Z,15.98
2022-11-17T02:29:42.442Z,18.42
2022-11-17T02:32:50.321Z,16.27
2022-11-17T02:35:35.110Z,17.58
2022-11-17T02:38:18.932Z,17.27
2022-11-17T02:41:16.783Z,16.33
2022-11-17T02:44:10.794Z,18.63
2022-11-17T02:46:51.078Z,19.02
2022-11-17T02:49:25.921Z,18.20
2022-11-17T02:51:57.062Z,17.42
2022-11-17T02:54:28.520Z,14.57
2022-11-17T02:56:55.503Z,16.77
2022-11-17T02:59:33.048Z,15.45
2022-11-17T03:02:41.684Z,13.25
2022-11-17T03:05:41.103Z,20.73
2022-11-17T03:08:33.286Z,17.27
2022-11-17T03:11:03.078Z,17.55
2022-11-17T03:13:48.152Z,18.75
2022-11-17T03:16:38.475Z,17.58
2022-11-17T03:19:31.595Z,18.58
2022-11-17T03:22:12.103Z,16.42
2022-11-17T03:24:43.872Z,16.08
2022-11-17T03:27:21.952Z,16.42
2022-11-17T03:29:53.800Z,17.27
2022-11-17T03:34:58.696Z,19.75
2022-11-17T03:37:30.944Z,19.65
2022-11-17T03:40:03.142Z,22.33
2022-11-17T03:42:34.688Z,21.73
2022-11-17T03:45:20.290Z,21.80
2022-11-17T03:47:51.907Z,23.00
2022-11-17T03:50:36.516Z,22.73
2022-11-17T03:53:04.727Z,22.23
2022-11-17T03:55:56.534Z,20.80
2022-11-17T03:58:28.287Z,20.10
2022-11-17T04:00:58.886Z,24.15
2022-11-17T04:03:34.112Z,21.25
2022-11-17T04:06:01.769Z,22.63
2022-11-17T04:08:30.725Z,19.50
2022-11-17T04:11:16.602Z,20.58
2022-11-17T04:14:02.121Z,25.33
2022-11-17T04:16:30.181Z,23.70
2022-11-17T04:18:58.839Z,21.02
2022-11-17T04:21:26.318Z,23.33
2022-11-17T04:23:53.151Z,21.30
2022-11-17T04:26:38.691Z,24.92
2022-11-17T04:29:05.464Z,23.55
2022-11-17T04:31:32.375Z,25.63
2022-11-17T04:34:05.955Z,21.67
2022-11-17T04:36:36.897Z,21.42
2022-11-17T04:39:04.012Z,25.10
2022-11-17T04:41:49.695Z,25.58
2022-11-17T04:44:18.061Z,26.92
2022-11-17T04:46:46.192Z,23.23
2022-11-17T04:49:14.805Z,22.55
2022-11-17T04:51:42.255Z,23.50
2022-11-17T04:54:10.842Z,26.80
2022-11-17T04:56:38.282Z,23.17
2022-11-17T04:59:05.955Z,25.42
2022-11-17T05:01:32.880Z,22.73
2022-11-17T05:04:08.164Z,24.73
2022-11-17T05:06:44.094Z,21.85
2022-11-17T05:09:13.875Z,20.85
2022-11-17T05:11:59.759Z,22.90
2022-11-17T05:14:27.424Z,23.88
2022-11-17T05:17:09.896Z,23.05
2022-11-17T05:19:48.284Z,21.70
2022-11-17T05:22:39.859Z,23.05
2022-11-17T05:25:07.257Z,21.15
2022-11-17T05:27:34.869Z,22.33
2022-11-17T05:30:02.799Z,21.40
2022-11-17T05:32:30.768Z,21.38
2022-11-17T05:34:57.502Z,26.38
2022-11-17T05:37:24.301Z,23.73
2022-11-17T05:39:51.012Z,29.23
2022-11-17T05:42:17.757Z,26.10
2022-11-17T05:44:44.550Z,21.23
2022-11-17T05:47:11.289Z,22.70
2022-11-17T05:49:38.070Z,27.75
2022-11-17T05:52:05.103Z,22.85
2022-11-17T05:54:31.830Z,22.27
2022-11-17T05:56:58.559Z,21.13
2022-11-17T05:59:46.696Z,22.85
2022-11-17T06:02:18.977Z,27.40
2022-11-17T06:04:46.470Z,26.13
2022-11-17T06:07:13.473Z,26.65
2022-11-17T06:09:42.313Z,25.92
2022-11-17T06:12:09.462Z,26.67
2022-11-17T06:14:37.732Z,23.60
2022-11-17T06:17:33.340Z,28.33
2022-11-17T06:20:13.506Z,30.35
2022-11-17T06:22:45.419Z,30.92
2022-11-17T06:25:15.714Z,33.33
2022-11-17T06:27:42.812Z,35.60
2022-11-17T06:30:10.214Z,40.30
2022-11-17T06:32:40.224Z,32.40
2022-11-17T06:35:09.584Z,35.83
2022-11-17T06:37:36.306Z,33.67
2022-11-17T06:40:04.019Z,34.65
2022-11-17T06:42:49.837Z,33.08
2022-11-17T06:45:16.790Z,31.33
2022-11-17T06:47:43.506Z,30.58
2022-11-17T06:50:10.542Z,35.08
2022-11-17T06:52:38.671Z,36.13
2022-11-17T06:55:06.169Z,36.35
2022-11-17T06:57:32.896Z,36.33
2022-11-17T06:59:59.590Z,35.80
2022-11-17T07:02:27.058Z,36.45
2022-11-17T07:04:53.818Z,36.78
2022-11-17T07:07:20.609Z,38.05
2022-11-17T07:09:47.303Z,39.97
2022-11-17T07:12:14.112Z,39.85
2022-11-17T07:14:40.775Z,38.67
2022-11-17T07:17:07.687Z,38.67
2022-11-17T07:19:34.395Z,38.13
2022-11-17T07:22:01.049Z,33.95
2022-11-17T07:24:27.792Z,33.38
2022-11-17T07:26:54.443Z,32.55
2022-11-17T07:29:21.184Z,27.42
2022-11-17T07:31:47.858Z,24.67
2022-11-17T07:34:14.566Z,28.38
2022-11-17T07:36:41.305Z,26.83
2022-11-17T07:39:07.969Z,29.27
2022-11-17T07:41:34.656Z,29.17
2022-11-17T07:44:01.447Z,30.40
2022-11-17T07:46:28.094Z,30.45
2022-11-17T07:48:56.264Z,35.10
2022-11-17T07:51:22.980Z,37.42
2022-11-17T07:53:49.651Z,34.95
2022-11-17T07:56:16.698Z,38.70
2022-11-17T07:58:43.482Z,34.88
2022-11-17T08:01:15.628Z,36.50
2022-11-17T08:03:43.277Z,35.80
2022-11-17T08:06:10.259Z,33.83
2022-11-17T08:08:38.349Z,44.13
2022-11-17T08:11:10.421Z,43.38
2022-11-17T08:13:38.442Z,40.63
2022-11-17T08:16:06.502Z,37.70
2022-11-17T08:18:33.823Z,38.53
2022-11-17T08:21:18.975Z,33.35
2022-11-17T08:23:45.855Z,34.50
2022-11-17T08:26:12.574Z,34.88
2022-11-17T08:28:39.789Z,30.70
2022-11-17T08:31:08.701Z,24.02
2022-11-17T08:33:36.052Z,24.73
2022-11-17T08:36:04.670Z,28.13
2022-11-17T08:38:31.530Z,23.92
2022-11-17T08:41:07.074Z,24.25
2022-11-17T08:43:34.724Z,21.38
2022-11-17T08:46:02.603Z,23.13
2022-11-17T08:48:31.543Z,20.98
2022-11-17T08:50:58.668Z,24.02
2022-11-17T08:53:25.399Z,23.73
2022-11-17T08:55:52.273Z,23.00
2022-11-17T08:58:19.163Z,18.83
2022-11-17T09:00:47.321Z,19.73
2022-11-17T09:03:14.893Z,19.83
2022-11-17T09:05:47.190Z,17.15
2022-11-17T09:11:10.573Z,16.88
2022-11-17T09:13:38.397Z,23.00
2022-11-17T09:16:08.204Z,17.20
2022-11-17T09:18:36.961Z,21.70
2022-11-17T09:21:07.707Z,20.60
2022-11-17T09:23:35.027Z,18.33
2022-11-17T09:26:09.228Z,18.35
2022-11-17T09:28:36.281Z,16.77
2022-11-17T09:31:12.127Z,16.15
2022-11-17T09:33:39.503Z,16.63
2022-11-17T09:36:09.514Z,15.80
2022-11-17T09:38:37.904Z,18.33
2022-11-17T09:41:30.396Z,16.40
2022-11-17T09:44:15.718Z,18.63
2022-11-17T09:46:50.740Z,18.88
2022-11-17T09:49:59.481Z,16.77
2022-11-17T09:52:29.029Z,18.45
2022-11-17T09:55:01.439Z,18.20
2022-11-17T09:57:47.559Z,17.85
2022-11-17T10:00:19.978Z,14.85
2022-11-17T10:02:47.841Z,15.30
2022-11-17T10:05:26.617Z,17.58
2022-11-17T10:07:56.472Z,17.40
2022-11-17T10:10:48.155Z,17.17
2022-11-17T10:13:25.453Z,16.52
2022-11-17T10:15:57.633Z,19.42
2022-11-17T10:18:24.515Z,16.88
2022-11-17T10:20:51.328Z,17.35
2022-11-17T10:23:20.203Z,16.25
2022-11-17T10:25:55.818Z,15.30
2022-11-17T10:28:28.428Z,16.38
2022-11-17T10:31:16.215Z,14.82
2022-11-17T10:33:44.185Z,13.55
2022-11-17T10:36:31.871Z,15.63
2022-11-17T10:39:00.304Z,13.40
2022-11-17T10:41:50.442Z,16.85
2022-11-17T10:44:30.623Z,15.77
2022-11-17T10:47:08.286Z,15.50
2022-11-17T10:49:38.469Z,14.40
2022-11-17T10:52:09.847Z,13.30
2022-11-17T10:54:36.687Z,12.70
2022-11-17T10:57:09.146Z,12.82
2022-11-17T10:59:43.178Z,11.68
2022-11-17T11:02:31.360Z,12.60
2022-11-17T11:05:10.429Z,12.73
2022-11-17T11:07:38.127Z,14.98
2022-11-17T11:10:10.602Z,16.92
2022-11-17T11:13:10.655Z,16.55
2022-11-17T11:15:37.463Z,14.43
2022-11-17T11:18:18.261Z,12.70
2022-11-17T11:20:44.879Z,14.20
2022-11-17T11:23:41.371Z,14.43
2022-11-17T11:26:08.171Z,12.32
2022-11-17T11:29:05.607Z,13.63
2022-11-17T11:31:36.717Z,13.23
2022-11-17T11:34:16.032Z,16.25
2022-11-17T11:37:00.348Z,14.60
2022-11-17T11:40:00.611Z,14.43
2022-11-17T11:42:45.943Z,17.15
2022-11-17T11:45:24.314Z,10.57
2022-11-17T11:48:03.108Z,15.45
2022-11-17T11:50:41.476Z,13.05
2022-11-17T11:53:17.375Z,18.25
2022-11-17T11:55:46.957Z,11.30
2022-11-17T11:58:24.668Z,12.43
2022-11-17T12:01:02.175Z,12.80
2022-11-17T12:03:46.339Z,12.07
2022-11-17T12:06:42.996Z,9.88
2022-11-17T12:09:18.431Z,11.23
2022-11-17T12:12:01.323Z,13.68
2022-11-17T12:14:33.362Z,12.68
2022-11-17T12:19:59.836Z,13.77
2022-11-17T12:22:29.245Z,10.57
2022-11-17T12:25:18.109Z,15.38
2022-11-17T12:27:48.598Z,12.55
2022-11-17T12:30:30.619Z,14.18
2022-11-17T12:35:28.897Z,16.00
2022-11-17T12:38:14.171Z,14.15
2022-11-17T12:40:46.859Z,12.00
2022-11-17T12:43:19.407Z,14.07
2022-11-17T12:45:58.259Z,20.73
2022-11-17T12:48:35.882Z,12.65
2022-11-17T12:51:30.599Z,13.20
2022-11-17T12:54:18.367Z,13.65
2022-11-17T12:56:50.284Z,11.45
2022-11-17T13:02:11.691Z,14.25
2022-11-17T13:04:49.725Z,11.68
2022-11-17T13:07:25.678Z,11.00
2022-11-17T13:09:57.377Z,11.88
2022-11-17T13:12:31.713Z,14.93
2022-11-17T13:15:02.628Z,10.18
2022-11-17T13:17:33.036Z,11.63
2022-11-17T13:20:02.349Z,11.88
2022-11-17T13:22:30.906Z,10.77
2022-11-17T13:24:58.026Z,12.00
2022-11-17T13:27:24.660Z,12.43
2022-11-17T13:29:52.404Z,12.07
2022-11-17T13:32:24.901Z,11.63
2022-11-17T13:34:56.721Z,14.40
2022-11-17T13:40:02.951Z,11.65
2022-11-17T13:42:33.328Z,10.43
2022-11-17T13:45:02.563Z,11.50
2022-11-17T13:47:36.211Z,9.40
2022-11-17T13:50:33.680Z,7.60
2022-11-17T13:53:21.606Z,8.48
2022-11-17T13:55:49.034Z,8.60
2022-11-17T13:58:28.334Z,11.07
2022-11-17T14:01:00.017Z,7.50
2022-11-17T14:03:32.809Z,12.30
2022-11-17T14:05:59.597Z,9.30
2022-11-17T14:08:31.692Z,9.10
2022-11-17T14:11:10.583Z,10.15
2022-11-17T14:13:59.020Z,10.60
2022-11-17T14:16:37.615Z,8.98
2022-11-17T14:19:24.158Z,11.25
2022-11-17T14:22:09.829Z,10.75
2022-11-17T14:24:37.812Z,9.90
2022-11-17T14:27:34.936Z,13.07
2022-11-17T14:30:01.808Z,10.23
2022-11-17T14:32:30.002Z,12.32
2022-11-17T14:34:57.893Z,14.13
2022-11-17T14:37:25.684Z,10.25
2022-11-17T14:39:52.320Z,9.73
2022-11-17T14:42:19.005Z,11.52
2022-11-17T14:44:45.678Z,12.40
2022-11-17T14:47:12.395Z,11.20
2022-11-17T14:49:39.051Z,14.93
2022-11-17T14:52:05.737Z,16.70
2022-11-17T14:54:32.424Z,11.32
2022-11-17T14:56:59.103Z,10.55
2022-11-17T14:59:25.778Z,10.70
2022-11-17T15:01:52.454Z,11.80
2022-11-17T15:04:48.756Z,9.80
2022-11-17T15:07:06.062Z,12.63
2022-11-17T15:09:33.198Z,10.98
2022-11-17T15:11:59.910Z,11.20
2022-11-17T15:14:26.554Z,11.13
2022-11-17T15:16:53.202Z,11.55
2022-11-17T15:19:19.929Z,10.82
2022-11-17T15:21:46.644Z,12.30
2022-11-17T15:24:13.801Z,8.90
2022-11-17T15:26:40.760Z,11.90
2022-11-17T15:29:07.464Z,9.23
2022-11-17T15:31:34.449Z,10.68
2022-11-17T15:34:01.315Z,13.18
2022-11-17T15:36:28.139Z,11.32
2022-11-17T15:38:54.841Z,11.27
2022-11-17T15:41:21.644Z,12.10
2022-11-17T15:43:48.620Z,12.35
2022-11-17T15:46:17.405Z,8.95
2022-11-17T15:48:45.851Z,10.60
2022-11-17T15:51:14.972Z,10.85
2022-11-17T15:53:42.915Z,11.73
2022-11-17T15:56:13.468Z,14.35
2022-11-17T15:58:41.579Z,9.57
2022-11-17T16:01:27.528Z,9.52
2022-11-17T16:04:11.266Z,7.30
2022-11-17T16:06:39.915Z,11.20
2022-11-17T16:09:07.579Z,12.48
2022-11-17T16:11:34.879Z,11.18
2022-11-17T16:14:02.431Z,9.73
2022-11-17T16:16:31.869Z,10.63
2022-11-17T16:18:58.760Z,9.43
2022-11-17T16:21:25.719Z,10.70
2022-11-17T16:23:54.815Z,11.38
2022-11-17T16:26:23.095Z,10.52
2022-11-17T16:28:50.134Z,11.43
2022-11-17T16:31:23.902Z,9.50
2022-11-17T16:33:55.604Z,10.63
2022-11-17T16:36:24.599Z,8.95
2022-11-17T16:39:01.525Z,9.02
2022-11-17T16:41:33.673Z,9.82
2022-11-17T16:44:01.893Z,11.57
2022-11-17T16:46:31.593Z,9.45
2022-11-17T16:49:03.774Z,9.40
2022-11-17T16:51:30.997Z,9.73
2022-11-17T16:54:00.600Z,7.97
2022-11-17T16:56:29.276Z,10.70
2022-11-17T16:58:56.249Z,10.18
2022-11-17T17:01:26.086Z,12.85
2022-11-17T17:04:00.461Z,11.18
2022-11-17T17:06:28.277Z,10.52
2022-11-17T17:09:05.540Z,9.77
2022-11-17T17:11:33.736Z,7.70
2022-11-17T17:14:04.426Z,11.32
2022-11-17T17:16:33.268Z,10.30
2022-11-17T17:19:01.872Z,11.05
2022-11-17T17:21:29.257Z,10.60
2022-11-17T17:23:57.064Z,12.48
2022-11-17T17:26:25.979Z,10.98
2022-11-17T17:28:56.177Z,8.55
2022-11-17T17:31:24.365Z,11.10
2022-11-17T17:33:51.997Z,11.07
2022-11-17T17:36:21.642Z,13.15
2022-11-17T17:38:54.951Z,11.20
2022-11-17T17:41:25.491Z,11.77
2022-11-17T17:43:58.199Z,12.30
2022-11-17T17:46:25.952Z,12.25
2022-11-17T17:48:52.747Z,13.35
2022-11-17T17:51:23.882Z,12.23
2022-11-17T17:53:51.472Z,9.68
2022-11-17T17:56:20.209Z,11.38
2022-11-17T17:58:48.954Z,10.18
2022-11-17T18:01:21.479Z,11.43
2022-11-17T18:03:49.951Z,9.98
2022-11-17T18:06:19.204Z,13.38
2022-11-17T18:08:46.613Z,10.30
2022-11-17T18:11:19.463Z,9.85
2022-11-17T18:13:48.428Z,12.32
2022-11-17T18:16:19.066Z,10.98
2022-11-17T18:18:46.410Z,11.02
2022-11-17T18:21:15.896Z,10.88
2022-11-17T18:23:43.247Z,10.52
2022-11-17T18:26:20.088Z,12.60
2022-11-17T18:28:58.075Z,8.57
2022-11-17T18:31:27.372Z,11.85
2022-11-17T18:33:59.845Z,10.07
2022-11-17T18:36:27.147Z,12.18
2022-11-17T18:38:53.949Z,11.10
2022-11-17T18:41:21.899Z,10.05
2022-11-17T18:43:49.072Z,12.80
2022-11-17T18:46:21.600Z,10.20
2022-11-17T18:48:51.644Z,10.32
2022-11-17T18:51:24.307Z,11.43
2022-11-17T18:53:52.959Z,12.07
2022-11-17T18:56:22.532Z,9.77
2022-11-17T18:58:49.545Z,13.15
2022-11-17T19:01:21.228Z,14.57
2022-11-17T19:03:50.455Z,10.20
2022-11-17T19:06:19.009Z,12.23
2022-11-17T19:08:49.442Z,10.50
2022-11-17T19:11:18.165Z,12.02
2022-11-17T19:13:45.852Z,12.65
2022-11-17T19:16:14.036Z,11.63
2022-11-17T19:18:41.944Z,13.07
2022-11-17T19:21:14.434Z,12.52
2022-11-17T19:23:47.982Z,12.18
2022-11-17T19:26:23.253Z,8.80
2022-11-17T19:28:50.519Z,11.02
2022-11-17T19:31:20.576Z,11.32
2022-11-17T19:33:48.584Z,12.55
2022-11-17T19:36:18.843Z,12.35
2022-11-17T19:38:58.026Z,12.88
2022-11-17T19:41:26.851Z,10.63
2022-11-17T19:43:54.995Z,10.32
2022-11-17T19:46:22.567Z,14.77
2022-11-17T19:48:49.375Z,10.02
2022-11-17T19:51:23.622Z,11.52
2022-11-17T19:53:52.646Z,13.57
2022-11-17T19:56:20.548Z,11.27
2022-11-17T19:58:48.030Z,11.23
2022-11-17T20:01:17.084Z,10.95
2022-11-17T20:03:44.712Z,9.95
2022-11-17T20:06:13.469Z,9.65
2022-11-17T20:08:40.379Z,11.57
2022-11-17T20:11:15.336Z,13.20
2022-11-17T20:13:42.619Z,9.52
2022-11-17T20:16:15.507Z,12.30
2022-11-17T20:18:43.983Z,13.90
2022-11-17T20:21:13.970Z,9.90
2022-11-17T20:23:41.955Z,11.98
2022-11-17T20:26:18.702Z,11.52
2022-11-17T20:28:46.008Z,13.23
2022-11-17T20:31:15.313Z,13.82
2022-11-17T20:33:43.646Z,11.77
2022-11-17T20:36:16.848Z,12.77
2022-11-17T20:38:43.789Z,11.40
2022-11-17T20:41:10.891Z,13.63
2022-11-17T20:43:37.640Z,14.07
2022-11-17T20:46:04.515Z,10.48
2022-11-17T20:48:34.020Z,12.23
2022-11-17T20:51:04.795Z,11.40
2022-11-17T20:53:32.226Z,13.70
2022-11-17T20:56:00.048Z,12.43
2022-11-17T20:58:27.733Z,13.30
2022-11-17T21:00:55.421Z,12.13
2022-11-17T21:03:23.263Z,13.30
2022-11-17T21:06:01.803Z,12.20
2022-11-17T21:08:32.084Z,11.82
2022-11-17T21:11:04.374Z,11.23
2022-11-17T21:13:32.715Z,12.27
2022-11-17T21:16:11.511Z,14.82
2022-11-17T21:18:44.505Z,12.82
2022-11-17T21:21:11.551Z,13.70
2022-11-17T21:23:39.985Z,14.35
2022-11-17T21:26:19.105Z,14.32
2022-11-17T21:28:46.744Z,14.25
2022-11-17T21:31:16.264Z,11.98
2022-11-17T21:33:44.214Z,15.32
2022-11-17T21:36:16.987Z,14.18
2022-11-17T21:38:45.403Z,14.85
2022-11-17T21:41:13.417Z,16.70
2022-11-17T21:43:41.980Z,19.50
2022-11-17T21:46:17.807Z,16.50
2022-11-17T21:48:45.235Z,16.50
2022-11-17T21:51:35.376Z,14.25
2022-11-17T21:54:05.605Z,15.70
2022-11-17T21:56:32.824Z,15.38
2022-11-17T21:59:05.248Z,14.32
2022-11-17T22:01:33.055Z,12.32
2022-11-17T22:04:00.158Z,14.30
2022-11-17T22:06:27.538Z,13.90
2022-11-17T22:08:55.827Z,13.25
2022-11-17T22:11:37.987Z,15.90
2022-11-17T22:14:14.273Z,16.17
2022-11-17T22:16:43.354Z,15.60
2022-11-17T22:19:11.328Z,13.60
2022-11-17T22:21:39.168Z,13.80
2022-11-17T22:24:07.879Z,14.20
2022-11-17T22:26:38.110Z,14.15
2022-11-17T22:29:06.567Z,15.88
2022-11-17T22:31:33.319Z,15.57
2022-11-17T22:33:59.967Z,14.73
2022-11-17T22:36:26.652Z,15.20
2022-11-17T22:38:53.631Z,13.95
2022-11-17T22:41:21.644Z,14.27
2022-11-17T22:43:52.797Z,15.48
2022-11-17T22:46:20.748Z,14.90
2022-11-17T22:48:47.955Z,14.30
2022-11-17T22:51:38.661Z,14.70
2022-11-17T22:54:06.593Z,13.95
2022-11-17T22:56:33.632Z,14.32
2022-11-17T22:59:00.973Z,13.88
2022-11-17T23:01:27.724Z,12.80
2022-11-17T23:03:54.684Z,15.77
2022-11-17T23:06:22.751Z,15.40
2022-11-17T23:08:49.684Z,14.63
2022-11-17T23:11:36.042Z,15.10
2022-11-17T23:14:03.746Z,12.43
2022-11-17T23:16:30.762Z,15.00
2022-11-17T23:18:57.707Z,15.90
2022-11-17T23:21:25.173Z,14.75
2022-11-17T23:23:52.001Z,14.55
2022-11-17T23:26:18.772Z,16.63
2022-11-17T23:28:45.527Z,14.05
2022-11-17T23:31:16.729Z,15.45
2022-11-17T23:33:45.327Z,16.77
2022-11-17T23:36:17.231Z,14.20
2022-11-17T23:38:44.390Z,18.35
2022-11-17T23:41:13.802Z,21.23
2022-11-17T23:43:40.901Z,19.75
2022-11-17T23:46:11.473Z,19.85
2022-11-17T23:48:38.250Z,17.00
2022-11-17T23:51:13.303Z,18.13
2022-11-17T23:53:40.543Z,19.30
2022-11-17T23:56:08.378Z,15.93
2022-11-17T23:58:35.583Z,17.65
